Time;durP1;ratioP1;P1;durP2;ratioP2;P2;SDS_P1;SDS_P2;PMS_P1;PMS_P2;Temp;Humidity;BMP_temperature;BMP_pressure;BME280_temperature;BME280_humidity;BME280_pressure;Samples;Min_cycle;Max_cycle;Signal;HPM_P1;HPM_P2
2021/09/12 00:00:22;;;;;;;5.25;3.53;;;;;;;;;;5068778;28;20059;-77
2021/09/12 00:02:49;;;;;;;4.20;3.35;;;;;;;;;;5068497;28;20472;-77
2021/09/12 00:05:15;;;;;;;5.20;4.07;;;;;;;;;;5069895;28;20052;-78
2021/09/12 00:07:41;;;;;;;6.30;3.70;;;;;;;;;;5073061;28;20456;-78
2021/09/12 00:10:08;;;;;;;4.05;3.60;;;;;;;;;;5062522;28;20121;-76
2021/09/12 00:12:37;;;;;;;5.05;3.83;;;;;;;;;;5066130;28;20585;-76
2021/09/12 00:15:03;;;;;;;4.82;3.85;;;;;;;;;;5062273;28;20186;-78
2021/09/12 00:17:30;;;;;;;6.55;3.70;;;;;;;;;;5073092;28;20064;-78
2021/09/12 00:19:56;;;;;;;4.50;3.17;;;;;;;;;;5073271;28;20648;-78
2021/09/12 00:22:23;;;;;;;4.25;3.75;;;;;;;;;;5053128;28;20071;-78
2021/09/12 00:24:49;;;;;;;4.97;3.60;;;;;;;;;;5071574;28;20602;-78
2021/09/12 00:27:16;;;;;;;3.95;3.45;;;;;;;;;;5059232;28;20780;-78
2021/09/12 00:29:42;;;;;;;4.22;3.30;;;;;;;;;;5058523;28;20060;-77
2021/09/12 00:32:08;;;;;;;5.97;3.70;;;;;;;;;;5042427;28;20052;-77
2021/09/12 00:34:35;;;;;;;4.10;3.40;;;;;;;;;;5071701;28;20069;-77
2021/09/12 00:37:01;;;;;;;4.65;3.45;;;;;;;;;;5069905;28;20064;-77
2021/09/12 00:39:29;;;;;;;5.10;3.78;;;;;;;;;;5067709;28;20063;-77
2021/09/12 00:41:56;;;;;;;5.10;3.42;;;;;;;;;;5080604;28;20036;-77
2021/09/12 00:44:25;;;;;;;5.10;3.97;;;;;;;;;;5067906;28;20060;-77
2021/09/12 00:46:53;;;;;;;4.75;3.60;;;;;;;;;;5067535;28;20107;-77
2021/09/12 00:49:20;;;;;;;5.05;3.60;;;;;;;;;;5066744;28;20127;-77
2021/09/12 00:51:48;;;;;;;4.60;3.60;;;;;;;;;;5065962;28;20101;-78
2021/09/12 00:54:15;;;;;;;4.47;3.47;;;;;;;;;;5067940;28;20110;-77
2021/09/12 00:56:42;;;;;;;5.05;3.60;;;;;;;;;;5065006;28;20036;-78
2021/09/12 00:59:12;;;;;;;4.45;3.50;;;;;;;;;;5074823;28;20121;-77
2021/09/12 01:01:40;;;;;;;4.20;3.47;;;;;;;;;;5066130;28;20060;-76
2021/09/12 01:04:07;;;;;;;4.07;3.17;;;;;;;;;;5059849;28;20047;-76
2021/09/12 01:06:33;;;;;;;5.53;3.50;;;;;;;;;;5061809;28;20107;-77
2021/09/12 01:09:00;;;;;;;4.60;3.53;;;;;;;;;;5078287;28;20060;-78
2021/09/12 01:11:26;;;;;;;4.95;3.20;;;;;;;;;;5070921;28;20116;-77
2021/09/12 01:13:53;;;;;;;4.07;3.10;;;;;;;;;;5073608;28;20455;-77
2021/09/12 01:16:20;;;;;;;4.68;3.63;;;;;;;;;;5065949;28;20075;-79
2021/09/12 01:18:47;;;;;;;5.07;3.67;;;;;;;;;;5061528;28;20064;-76
2021/09/12 01:21:14;;;;;;;5.13;3.72;;;;;;;;;;5063377;28;20059;-76
2021/09/12 01:23:41;;;;;;;4.63;3.75;;;;;;;;;;5069833;28;20068;-77
2021/09/12 01:26:08;;;;;;;5.18;3.80;;;;;;;;;;5066269;28;20059;-77
2021/09/12 01:28:38;;;;;;;5.50;3.58;;;;;;;;;;5062298;28;20048;-77
2021/09/12 01:31:04;;;;;;;4.25;3.20;;;;;;;;;;5058207;28;20060;-77
2021/09/12 01:33:31;;;;;;;4.50;3.65;;;;;;;;;;5055622;28;20052;-79
2021/09/12 01:35:57;;;;;;;4.50;3.55;;;;;;;;;;5055843;28;20076;-79
2021/09/12 01:38:24;;;;;;;4.63;3.42;;;;;;;;;;5055555;28;20547;-79
2021/09/12 01:40:50;;;;;;;5.25;3.80;;;;;;;;;;5070528;28;20807;-79
2021/09/12 01:43:20;;;;;;;4.72;3.83;;;;;;;;;;5074232;28;20064;-78
2021/09/12 01:45:47;;;;;;;5.80;3.25;;;;;;;;;;5069712;28;20097;-78
2021/09/12 01:48:13;;;;;;;4.65;3.97;;;;;;;;;;5064097;28;20448;-79
2021/09/12 01:50:39;;;;;;;4.15;3.47;;;;;;;;;;5066209;28;20135;-78
2021/09/12 01:53:09;;;;;;;5.10;3.70;;;;;;;;;;5083277;28;20495;-78
2021/09/12 01:55:35;;;;;;;5.15;3.63;;;;;;;;;;5064256;28;20222;-79
2021/09/12 01:58:01;;;;;;;4.43;3.50;;;;;;;;;;5067758;28;20444;-78
2021/09/12 02:00:28;;;;;;;7.07;3.45;;;;;;;;;;5057480;28;20121;-78
2021/09/12 02:02:54;;;;;;;5.55;3.60;;;;;;;;;;5070701;28;20408;-79
2021/09/12 02:05:21;;;;;;;5.38;3.58;;;;;;;;;;5061343;28;20052;-78
2021/09/12 02:07:47;;;;;;;5.10;3.75;;;;;;;;;;5070800;28;20437;-79
2021/09/12 02:10:13;;;;;;;4.13;3.40;;;;;;;;;;5084019;28;20056;-80
2021/09/12 02:12:40;;;;;;;5.35;3.88;;;;;;;;;;5073653;28;20118;-78
2021/09/12 02:15:06;;;;;;;6.70;3.90;;;;;;;;;;5073912;28;20060;-78
2021/09/12 02:17:33;;;;;;;4.55;3.50;;;;;;;;;;5055548;28;20120;-79
2021/09/12 02:20:00;;;;;;;5.22;3.70;;;;;;;;;;5041393;28;20072;-79
2021/09/12 02:22:26;;;;;;;5.28;3.47;;;;;;;;;;5059646;28;20124;-79
2021/09/12 02:24:53;;;;;;;5.03;3.47;;;;;;;;;;5041802;28;20053;-79
2021/09/12 02:27:19;;;;;;;5.55;3.42;;;;;;;;;;5048170;28;20126;-80
2021/09/12 02:29:45;;;;;;;5.78;3.80;;;;;;;;;;5068880;28;20036;-80
2021/09/12 02:32:13;;;;;;;4.75;3.80;;;;;;;;;;5036259;28;20176;-81
2021/09/12 02:34:39;;;;;;;4.60;3.60;;;;;;;;;;5033047;28;20141;-81
2021/09/12 02:37:05;;;;;;;4.53;3.88;;;;;;;;;;5041189;28;20049;-82
2021/09/12 02:39:33;;;;;;;6.57;3.40;;;;;;;;;;5062264;28;20183;-82
2021/09/12 02:42:00;;;;;;;4.63;3.53;;;;;;;;;;5038596;28;20080;-82
2021/09/12 02:44:26;;;;;;;5.72;3.67;;;;;;;;;;5076865;28;20132;-82
2021/09/12 02:46:52;;;;;;;4.45;3.40;;;;;;;;;;5068238;28;20071;-82
2021/09/12 02:49:19;;;;;;;5.18;3.60;;;;;;;;;;5039864;28;20060;-82
2021/09/12 02:51:45;;;;;;;4.57;3.22;;;;;;;;;;5069885;28;20133;-82
2021/09/12 02:54:12;;;;;;;5.28;3.60;;;;;;;;;;5073304;28;20504;-82
2021/09/12 02:56:38;;;;;;;4.13;3.22;;;;;;;;;;5061006;28;20075;-82
2021/09/12 02:59:04;;;;;;;5.03;3.75;;;;;;;;;;5060562;28;21577;-82
2021/09/12 03:01:31;;;;;;;5.03;3.78;;;;;;;;;;5064764;28;20052;-82
2021/09/12 03:03:57;;;;;;;5.35;3.40;;;;;;;;;;5052385;28;20059;-82
2021/09/12 03:06:24;;;;;;;4.90;3.40;;;;;;;;;;5038922;28;20063;-81
2021/09/12 03:08:50;;;;;;;4.68;3.22;;;;;;;;;;5060088;28;20103;-81
2021/09/12 03:11:16;;;;;;;4.50;3.28;;;;;;;;;;5061262;28;20072;-81
2021/09/12 03:13:43;;;;;;;4.63;3.70;;;;;;;;;;5070272;28;20071;-81
2021/09/12 03:16:09;;;;;;;4.45;3.45;;;;;;;;;;5066474;28;20067;-82
2021/09/12 03:18:35;;;;;;;5.82;3.60;;;;;;;;;;5043716;28;20064;-82
2021/09/12 03:21:02;;;;;;;5.90;3.83;;;;;;;;;;5058588;28;20060;-82
2021/09/12 03:23:28;;;;;;;4.07;2.97;;;;;;;;;;5083407;28;20035;-82
2021/09/12 03:25:55;;;;;;;4.32;3.28;;;;;;;;;;5079905;28;20056;-81
2021/09/12 03:28:21;;;;;;;4.78;3.60;;;;;;;;;;5081029;28;20070;-82
2021/09/12 03:30:48;;;;;;;5.60;3.30;;;;;;;;;;5062606;28;20068;-81
2021/09/12 03:33:15;;;;;;;3.80;3.33;;;;;;;;;;5048928;28;20789;-81
2021/09/12 03:35:42;;;;;;;4.35;3.75;;;;;;;;;;5038044;28;20057;-82
2021/09/12 03:38:09;;;;;;;3.95;3.55;;;;;;;;;;5044076;28;20126;-81
2021/09/12 03:40:37;;;;;;;5.30;3.75;;;;;;;;;;5072176;28;20067;-81
2021/09/12 03:43:03;;;;;;;4.07;3.08;;;;;;;;;;5075426;28;20090;-81
2021/09/12 03:45:30;;;;;;;5.40;3.70;;;;;;;;;;5065974;28;20060;-81
2021/09/12 03:47:56;;;;;;;4.20;3.40;;;;;;;;;;5056721;28;20071;-81
2021/09/12 03:50:22;;;;;;;4.40;3.20;;;;;;;;;;5070327;28;20056;-81
2021/09/12 03:52:49;;;;;;;4.07;3.13;;;;;;;;;;5042735;28;20060;-80
2021/09/12 03:55:15;;;;;;;6.93;3.90;;;;;;;;;;5077128;28;20045;-81
2021/09/12 03:57:42;;;;;;;3.83;3.10;;;;;;;;;;5067360;28;20479;-80
2021/09/12 04:00:10;;;;;;;4.25;3.55;;;;;;;;;;5045800;28;20052;-81
2021/09/12 04:02:38;;;;;;;4.18;3.28;;;;;;;;;;5048083;28;20575;-81
2021/09/12 04:05:05;;;;;;;5.18;3.63;;;;;;;;;;5052039;28;20037;-81
2021/09/12 04:07:31;;;;;;;4.68;3.50;;;;;;;;;;5064278;28;20079;-81
2021/09/12 04:09:58;;;;;;;4.40;3.63;;;;;;;;;;5078398;28;20059;-80
2021/09/12 04:12:24;;;;;;;4.40;3.10;;;;;;;;;;5082250;28;20104;-81
2021/09/12 04:14:53;;;;;;;4.40;3.35;;;;;;;;;;5039805;28;20500;-80
2021/09/12 04:17:20;;;;;;;4.05;3.33;;;;;;;;;;5056356;28;20128;-81
2021/09/12 04:19:47;;;;;;;4.65;3.35;;;;;;;;;;5068478;28;20064;-80
2021/09/12 04:22:13;;;;;;;4.35;3.35;;;;;;;;;;5081126;28;20436;-80
2021/09/12 04:24:41;;;;;;;3.70;3.08;;;;;;;;;;5082144;28;20039;-79
2021/09/12 04:27:07;;;;;;;4.80;3.72;;;;;;;;;;5080458;28;20087;-80
2021/09/12 04:29:34;;;;;;;4.25;3.10;;;;;;;;;;5054453;28;20064;-81
2021/09/12 04:32:00;;;;;;;4.43;3.20;;;;;;;;;;5052946;28;20061;-81
2021/09/12 04:34:27;;;;;;;3.67;2.95;;;;;;;;;;5043354;28;20061;-81
2021/09/12 04:36:53;;;;;;;3.80;3.40;;;;;;;;;;5052275;28;20064;-81
2021/09/12 04:39:20;;;;;;;3.67;3.05;;;;;;;;;;5039219;28;20036;-80
2021/09/12 04:41:46;;;;;;;3.75;3.22;;;;;;;;;;5059082;28;20075;-81
2021/09/12 04:44:12;;;;;;;4.00;2.95;;;;;;;;;;5052461;28;20118;-81
2021/09/12 04:46:39;;;;;;;4.90;3.28;;;;;;;;;;5074716;28;20082;-82
2021/09/12 04:49:05;;;;;;;4.15;3.10;;;;;;;;;;5048376;28;22105;-81
2021/09/12 04:51:32;;;;;;;4.28;2.97;;;;;;;;;;5061755;28;20056;-81
2021/09/12 04:53:58;;;;;;;3.88;2.95;;;;;;;;;;5056325;28;20385;-81
2021/09/12 04:56:25;;;;;;;3.38;2.95;;;;;;;;;;5044131;28;20068;-82
2021/09/12 04:58:51;;;;;;;3.80;3.00;;;;;;;;;;5076465;28;20048;-82
2021/09/12 05:01:18;;;;;;;3.83;3.13;;;;;;;;;;5071290;28;20071;-81
2021/09/12 05:03:44;;;;;;;5.03;2.90;;;;;;;;;;5071707;27;20295;-80
2021/09/12 05:06:12;;;;;;;3.83;3.30;;;;;;;;;;5053238;28;20084;-81
2021/09/12 05:08:39;;;;;;;4.25;3.25;;;;;;;;;;5054981;28;20065;-81
2021/09/12 05:11:05;;;;;;;4.82;3.03;;;;;;;;;;5069827;28;20056;-81
2021/09/12 05:13:33;;;;;;;3.28;2.67;;;;;;;;;;5043163;28;20068;-80
2021/09/12 05:15:59;;;;;;;4.35;2.80;;;;;;;;;;5054745;28;20064;-81
2021/09/12 05:18:26;;;;;;;4.55;2.92;;;;;;;;;;5068130;28;20098;-81
2021/09/12 05:20:52;;;;;;;3.33;2.50;;;;;;;;;;5054926;28;20063;-79
2021/09/12 05:23:18;;;;;;;4.07;3.20;;;;;;;;;;5047949;28;20450;-81
2021/09/12 05:25:46;;;;;;;3.50;2.92;;;;;;;;;;5046947;28;20063;-79
2021/09/12 05:28:14;;;;;;;3.35;2.60;;;;;;;;;;5048813;28;20506;-81
2021/09/12 05:30:41;;;;;;;3.47;2.67;;;;;;;;;;5055902;28;20060;-81
2021/09/12 05:33:07;;;;;;;4.88;2.90;;;;;;;;;;5052123;28;20068;-78
2021/09/12 05:35:34;;;;;;;3.53;2.90;;;;;;;;;;5061519;28;20576;-79
2021/09/12 05:38:00;;;;;;;4.18;3.00;;;;;;;;;;5045649;28;20064;-81
2021/09/12 05:40:27;;;;;;;3.53;3.10;;;;;;;;;;5044321;28;20055;-80
2021/09/12 05:42:53;;;;;;;3.60;3.10;;;;;;;;;;5079058;28;20052;-79
2021/09/12 05:45:21;;;;;;;2.95;2.45;;;;;;;;;;5078159;28;20059;-79
2021/09/12 05:47:47;;;;;;;3.65;2.78;;;;;;;;;;5076494;28;20117;-79
2021/09/12 05:50:14;;;;;;;4.93;2.97;;;;;;;;;;5070628;28;20532;-82
2021/09/12 05:52:40;;;;;;;4.68;2.85;;;;;;;;;;5060181;28;20059;-79
2021/09/12 05:55:07;;;;;;;4.88;2.75;;;;;;;;;;5061088;28;20060;-80
2021/09/12 05:57:33;;;;;;;3.53;2.90;;;;;;;;;;5038892;28;20825;-82
2021/09/12 06:00:00;;;;;;;5.25;2.70;;;;;;;;;;5059181;28;20066;-79
2021/09/12 06:02:26;;;;;;;4.43;2.60;;;;;;;;;;5052433;28;20059;-80
2021/09/12 06:04:53;;;;;;;5.00;2.92;;;;;;;;;;5061855;28;20560;-81
2021/09/12 06:07:19;;;;;;;3.00;2.30;;;;;;;;;;5078272;28;20627;-80
2021/09/12 06:09:45;;;;;;;4.85;2.70;;;;;;;;;;5078741;28;20060;-79
2021/09/12 06:12:13;;;;;;;5.28;2.80;;;;;;;;;;5072841;28;20028;-80
2021/09/12 06:14:39;;;;;;;4.53;2.60;;;;;;;;;;5078902;27;20111;-79
2021/09/12 06:17:05;;;;;;;3.15;2.60;;;;;;;;;;5061334;28;21967;-79
2021/09/12 06:19:35;;;;;;;3.30;2.42;;;;;;;;;;5073036;28;20135;-78
2021/09/12 06:22:02;;;;;;;2.97;2.10;;;;;;;;;;5067302;28;20075;-78
2021/09/12 06:24:28;;;;;;;2.90;2.25;;;;;;;;;;5050373;28;20113;-79
2021/09/12 06:26:55;;;;;;;3.78;2.60;;;;;;;;;;5040957;28;20055;-79
2021/09/12 06:29:21;;;;;;;3.53;2.53;;;;;;;;;;5063533;28;20052;-79
2021/09/12 06:31:48;;;;;;;3.40;2.53;;;;;;;;;;5065380;28;20051;-79
2021/09/12 06:34:14;;;;;;;3.90;2.80;;;;;;;;;;5065699;28;20060;-79
2021/09/12 06:36:41;;;;;;;3.00;2.55;;;;;;;;;;5058625;28;20072;-78
2021/09/12 06:39:07;;;;;;;3.30;2.38;;;;;;;;;;5040719;28;20052;-79
2021/09/12 06:41:34;;;;;;;2.92;2.50;;;;;;;;;;5056021;28;20117;-78
2021/09/12 06:44:00;;;;;;;3.05;2.42;;;;;;;;;;5055119;28;20261;-78
2021/09/12 06:46:27;;;;;;;3.65;2.65;;;;;;;;;;5065385;28;20071;-79
2021/09/12 06:48:53;;;;;;;3.47;2.60;;;;;;;;;;5056530;28;20091;-79
2021/09/12 06:51:20;;;;;;;3.10;2.35;;;;;;;;;;5059471;28;20068;-81
2021/09/12 06:53:47;;;;;;;3.60;2.38;;;;;;;;;;5053124;28;20040;-80
2021/09/12 06:56:14;;;;;;;2.72;2.25;;;;;;;;;;5051713;28;20063;-81
2021/09/12 06:58:42;;;;;;;3.85;2.80;;;;;;;;;;5071642;28;20064;-80
2021/09/12 07:01:08;;;;;;;4.07;2.60;;;;;;;;;;5049468;28;20064;-79
2021/09/12 07:03:35;;;;;;;3.20;2.20;;;;;;;;;;5077800;28;20055;-78
2021/09/12 07:06:01;;;;;;;3.30;2.25;;;;;;;;;;5075769;28;20032;-78
2021/09/12 07:08:28;;;;;;;3.28;2.17;;;;;;;;;;5063471;28;20100;-78
2021/09/12 07:10:54;;;;;;;2.53;2.08;;;;;;;;;;5056418;28;20056;-78
2021/09/12 07:13:20;;;;;;;4.65;2.67;;;;;;;;;;5070986;28;20131;-78
2021/09/12 07:15:47;;;;;;;4.18;2.50;;;;;;;;;;5062383;28;20159;-78
2021/09/12 07:18:13;;;;;;;3.17;2.30;;;;;;;;;;5078198;28;20056;-77
2021/09/12 07:20:40;;;;;;;2.20;1.88;;;;;;;;;;5056150;28;20139;-79
2021/09/12 07:23:06;;;;;;;3.55;2.70;;;;;;;;;;5065249;28;20431;-78
2021/09/12 07:25:33;;;;;;;2.83;2.30;;;;;;;;;;5072663;28;20055;-80
2021/09/12 07:27:59;;;;;;;3.17;2.50;;;;;;;;;;5060013;28;20060;-80
2021/09/12 07:30:26;;;;;;;3.42;2.50;;;;;;;;;;5072159;28;20070;-79
2021/09/12 07:32:53;;;;;;;5.20;2.40;;;;;;;;;;5071809;28;20055;-81
2021/09/12 07:35:19;;;;;;;3.40;2.20;;;;;;;;;;5058458;28;20128;-81
2021/09/12 07:37:46;;;;;;;4.10;2.47;;;;;;;;;;5062711;28;20469;-81
2021/09/12 07:40:13;;;;;;;4.95;2.33;;;;;;;;;;5047558;28;20040;-83
2021/09/12 07:42:41;;;;;;;4.10;2.50;;;;;;;;;;5065487;28;20523;-86
2021/09/12 07:45:07;;;;;;;3.38;2.50;;;;;;;;;;5054237;28;20056;-80
2021/09/12 07:47:34;;;;;;;7.25;2.50;;;;;;;;;;5046507;28;20052;-81
2021/09/12 07:50:00;;;;;;;3.58;2.20;;;;;;;;;;5056748;28;20500;-80
2021/09/12 07:52:27;;;;;;;3.25;2.28;;;;;;;;;;5056390;28;20056;-82
2021/09/12 07:54:53;;;;;;;4.00;2.20;;;;;;;;;;5084995;28;20032;-80
2021/09/12 07:57:19;;;;;;;4.70;2.60;;;;;;;;;;5080802;28;20060;-80
2021/09/12 07:59:46;;;;;;;3.75;2.40;;;;;;;;;;5064203;28;20385;-80
2021/09/12 08:02:12;;;;;;;3.75;2.20;;;;;;;;;;5057121;28;20492;-81
2021/09/12 08:04:39;;;;;;;7.35;2.90;;;;;;;;;;5057827;28;20053;-82
2021/09/12 08:07:05;;;;;;;2.85;2.08;;;;;;;;;;5038430;28;20110;-81
2021/09/12 08:09:32;;;;;;;4.10;2.10;;;;;;;;;;5056177;28;20067;-81
2021/09/12 08:11:58;;;;;;;3.00;2.00;;;;;;;;;;5035894;28;20053;-81
2021/09/12 08:14:28;;;;;;;3.13;2.40;;;;;;;;;;5038150;28;20114;-81
2021/09/12 08:16:54;;;;;;;2.60;1.88;;;;;;;;;;5055784;28;20064;-82
2021/09/12 08:19:21;;;;;;;5.40;2.28;;;;;;;;;;5043110;28;20048;-81
2021/09/12 08:21:47;;;;;;;3.50;2.40;;;;;;;;;;5054553;28;20086;-81
2021/09/12 08:24:13;;;;;;;2.88;2.00;;;;;;;;;;5043908;28;20072;-80
2021/09/12 08:26:40;;;;;;;3.67;2.28;;;;;;;;;;5062599;28;20060;-80
2021/09/12 08:29:06;;;;;;;4.13;2.33;;;;;;;;;;5032810;28;20512;-81
2021/09/12 08:31:33;;;;;;;2.80;1.92;;;;;;;;;;5046500;28;20996;-81
2021/09/12 08:34:01;;;;;;;4.40;2.03;;;;;;;;;;5043386;28;20052;-80
2021/09/12 08:36:27;;;;;;;4.00;2.20;;;;;;;;;;5049842;28;20068;-80
2021/09/12 08:38:54;;;;;;;2.90;2.00;;;;;;;;;;5059624;28;20102;-81
2021/09/12 08:41:20;;;;;;;3.17;1.90;;;;;;;;;;5037199;28;20391;-80
2021/09/12 08:43:47;;;;;;;4.97;2.35;;;;;;;;;;5041033;28;20121;-80
2021/09/12 08:46:16;;;;;;;3.33;2.28;;;;;;;;;;5087135;28;20070;-80
2021/09/12 08:48:43;;;;;;;4.75;2.30;;;;;;;;;;5057497;28;20105;-78
2021/09/12 08:51:09;;;;;;;2.53;2.10;;;;;;;;;;5013595;28;20078;-80
2021/09/12 08:53:36;;;;;;;4.00;2.10;;;;;;;;;;5046020;28;20454;-81
2021/09/12 08:56:02;;;;;;;4.13;2.30;;;;;;;;;;5059129;28;20060;-81
2021/09/12 08:58:29;;;;;;;3.08;1.98;;;;;;;;;;5057253;28;20060;-81
2021/09/12 09:00:59;;;;;;;2.90;2.10;;;;;;;;;;5049522;28;20142;-80
2021/09/12 09:03:49;;;;;;;2.67;1.95;;;;;;;;;;5073848;28;20474;-81
2021/09/12 09:06:19;;;;;;;4.32;2.60;;;;;;;;;;5049218;28;20164;-80
2021/09/12 09:08:53;;;;;;;4.03;2.20;;;;;;;;;;5058288;28;20308;-80
2021/09/12 09:11:39;;;;;;;3.90;2.50;;;;;;;;;;5060395;28;20120;-82
2021/09/12 09:14:16;;;;;;;2.67;1.67;;;;;;;;;;5051593;28;20063;-83
2021/09/12 09:16:43;;;;;;;3.90;2.03;;;;;;;;;;5053043;28;20052;-80
2021/09/12 09:19:10;;;;;;;2.85;2.08;;;;;;;;;;5069740;28;20141;-82
2021/09/12 09:21:38;;;;;;;3.75;2.20;;;;;;;;;;5046865;28;20097;-81
2021/09/12 09:24:26;;;;;;;3.00;2.00;;;;;;;;;;5071588;28;20526;-80
2021/09/12 09:26:54;;;;;;;3.80;2.10;;;;;;;;;;5049179;28;20056;-81
2021/09/12 09:29:24;;;;;;;2.67;2.13;;;;;;;;;;5058602;28;20078;-80
2021/09/12 09:32:01;;;;;;;3.13;2.30;;;;;;;;;;5053940;28;20599;-82
2021/09/12 09:34:28;;;;;;;3.03;2.00;;;;;;;;;;5068394;28;20086;-81
2021/09/12 09:37:07;;;;;;;3.83;1.92;;;;;;;;;;5034392;28;20068;-82
2021/09/12 09:39:34;;;;;;;3.03;1.80;;;;;;;;;;5057465;28;20060;-82
2021/09/12 09:42:01;;;;;;;4.32;2.33;;;;;;;;;;5067515;28;20052;-81
2021/09/12 09:44:27;;;;;;;4.35;2.10;;;;;;;;;;5048392;28;20060;-81
2021/09/12 09:46:53;;;;;;;5.55;2.00;;;;;;;;;;5047814;28;20064;-81
2021/09/12 09:49:25;;;;;;;3.05;2.05;;;;;;;;;;5048052;28;20086;-81
2021/09/12 09:51:51;;;;;;;;;;;;;;;;;;5051400;28;20028;-82
2021/09/12 09:54:20;;;;;;;2.97;1.52;;;;;;;;;;5068293;28;20247;-81
2021/09/12 09:56:48;;;;;;;3.20;1.95;;;;;;;;;;5046751;28;20044;-81
2021/09/12 09:59:16;;;;;;;2.67;1.92;;;;;;;;;;5075221;28;20066;-81
2021/09/12 10:01:51;;;;;;;7.95;2.42;;;;;;;;;;5077701;28;20056;-80
2021/09/12 10:04:19;;;;;;;3.90;1.90;;;;;;;;;;5052122;28;20547;-82
2021/09/12 10:06:46;;;;;;;3.70;2.00;;;;;;;;;;5072829;28;20659;-83
2021/09/12 10:09:13;;;;;;;4.45;1.90;;;;;;;;;;5067306;28;20085;-82
2021/09/12 10:11:41;;;;;;;3.28;1.80;;;;;;;;;;5072639;28;20068;-81
2021/09/12 10:14:08;;;;;;;2.40;1.90;;;;;;;;;;5051053;28;20032;-82
2021/09/12 10:16:35;;;;;;;2.65;2.00;;;;;;;;;;5043557;28;20064;-83
2021/09/12 10:19:02;;;;;;;2.75;1.73;;;;;;;;;;5043811;28;20468;-81
2021/09/12 10:21:30;;;;;;;3.03;1.70;;;;;;;;;;5054319;28;20106;-82
2021/09/12 10:23:57;;;;;;;4.00;2.00;;;;;;;;;;5057866;28;20252;-81
2021/09/12 10:26:28;;;;;;;2.35;1.80;;;;;;;;;;5054921;28;20114;-81
2021/09/12 10:28:55;;;;;;;2.85;1.67;;;;;;;;;;5077652;28;20121;-81
2021/09/12 10:31:27;;;;;;;3.03;2.10;;;;;;;;;;5056001;28;20024;-82
2021/09/12 10:34:04;;;;;;;4.70;2.15;;;;;;;;;;5044615;28;20653;-82
2021/09/12 10:36:30;;;;;;;4.05;1.95;;;;;;;;;;5065573;28;20448;-82
2021/09/12 10:38:57;;;;;;;3.60;1.70;;;;;;;;;;5064649;28;20138;-82
2021/09/12 10:41:23;;;;;;;3.30;2.10;;;;;;;;;;5076336;28;20808;-83
2021/09/12 10:43:51;;;;;;;4.15;1.92;;;;;;;;;;5081217;28;20132;-82
2021/09/12 10:46:17;;;;;;;2.22;1.70;;;;;;;;;;5071106;28;20312;-82
2021/09/12 10:48:50;;;;;;;2.45;1.83;;;;;;;;;;5037004;28;20165;-81
2021/09/12 10:51:19;;;;;;;3.38;2.00;;;;;;;;;;5041558;28;20479;-82
2021/09/12 10:53:46;;;;;;;3.00;2.25;;;;;;;;;;5055111;28;20110;-82
2021/09/12 10:56:19;;;;;;;4.03;2.08;;;;;;;;;;5047693;28;20167;-81
2021/09/12 10:58:48;;;;;;;4.35;2.00;;;;;;;;;;5049468;28;20078;-81
2021/09/12 11:01:24;;;;;;;3.30;1.80;;;;;;;;;;5071528;28;20086;-79
2021/09/12 11:03:51;;;;;;;2.80;1.80;;;;;;;;;;5049844;28;20523;-79
2021/09/12 11:06:20;;;;;;;3.55;1.77;;;;;;;;;;5053872;28;20044;-79
2021/09/12 11:08:46;;;;;;;3.78;2.45;;;;;;;;;;5073794;28;20440;-79
2021/09/12 11:11:13;;;;;;;3.97;2.30;;;;;;;;;;5071103;28;20114;-79
2021/09/12 11:13:39;;;;;;;3.38;2.22;;;;;;;;;;5057418;28;20583;-78
2021/09/12 11:16:08;;;;;;;3.47;2.05;;;;;;;;;;5062255;28;20122;-78
2021/09/12 11:18:46;;;;;;;3.25;2.05;;;;;;;;;;5070525;28;20063;-78
2021/09/12 11:21:31;;;;;;;3.63;1.98;;;;;;;;;;5063962;28;20064;-79
2021/09/12 11:24:07;;;;;;;4.32;2.00;;;;;;;;;;5048594;28;20040;-78
2021/09/12 11:26:37;;;;;;;3.38;1.92;;;;;;;;;;5077728;28;20537;-78
2021/09/12 11:29:05;;;;;;;2.78;1.90;;;;;;;;;;5055691;28;20052;-79
2021/09/12 11:31:33;;;;;;;3.28;1.90;;;;;;;;;;5059800;28;20783;-78
2021/09/12 11:33:59;;;;;;;3.30;1.90;;;;;;;;;;5057030;28;20060;-79
2021/09/12 11:36:26;;;;;;;3.15;1.80;;;;;;;;;;5070986;28;20075;-78
2021/09/12 11:38:58;;;;;;;2.92;1.98;;;;;;;;;;5067966;28;21398;-78
2021/09/12 11:41:29;;;;;;;4.20;2.15;;;;;;;;;;5074278;28;20037;-78
2021/09/12 11:43:57;;;;;;;4.38;2.00;;;;;;;;;;5073541;28;20105;-80
2021/09/12 11:46:24;;;;;;;4.15;2.03;;;;;;;;;;5071765;28;20149;-82
2021/09/12 11:48:54;;;;;;;3.45;2.10;;;;;;;;;;5080515;28;20051;-80
2021/09/12 11:51:28;;;;;;;5.77;2.10;;;;;;;;;;5066589;28;20088;-81
2021/09/12 11:54:04;;;;;;;3.10;2.00;;;;;;;;;;5066391;28;20480;-81
2021/09/12 11:56:30;;;;;;;3.22;2.15;;;;;;;;;;5062003;28;20079;-78
2021/09/12 11:58:57;;;;;;;3.20;1.77;;;;;;;;;;5073023;28;20658;-78
2021/09/12 12:01:24;;;;;;;2.67;1.95;;;;;;;;;;5073281;28;20052;-78
2021/09/12 12:03:50;;;;;;;4.05;1.83;;;;;;;;;;5071577;28;20056;-77
2021/09/12 12:06:17;;;;;;;5.13;2.08;;;;;;;;;;5073396;28;20064;-77
2021/09/12 12:09:02;;;;;;;3.72;1.98;;;;;;;;;;5074288;28;20082;-77
2021/09/12 12:11:29;;;;;;;3.53;2.00;;;;;;;;;;5053234;28;20063;-78
2021/09/12 12:13:55;;;;;;;4.82;1.67;;;;;;;;;;5071643;28;21555;-79
2021/09/12 12:16:22;;;;;;;3.90;1.90;;;;;;;;;;5054161;28;20436;-78
2021/09/12 12:19:00;;;;;;;4.78;1.90;;;;;;;;;;5048744;28;20128;-79
2021/09/12 12:21:30;;;;;;;2.75;1.75;;;;;;;;;;5048194;28;20072;-80
2021/09/12 12:23:56;;;;;;;2.63;1.80;;;;;;;;;;5070393;28;20504;-79
2021/09/12 12:26:23;;;;;;;3.35;2.10;;;;;;;;;;5063653;28;20036;-79
2021/09/12 12:29:00;;;;;;;4.05;1.92;;;;;;;;;;5060928;28;20648;-78
2021/09/12 12:31:27;;;;;;;3.67;1.77;;;;;;;;;;5083995;28;20052;-78
2021/09/12 12:33:53;;;;;;;3.00;1.65;;;;;;;;;;5072590;28;20067;-78
2021/09/12 12:36:22;;;;;;;4.40;1.80;;;;;;;;;;5070581;28;20072;-78
2021/09/12 12:38:50;;;;;;;2.65;2.10;;;;;;;;;;5056353;28;20048;-78
2021/09/12 12:41:21;;;;;;;4.43;1.70;;;;;;;;;;5072753;28;20086;-78
2021/09/12 12:43:47;;;;;;;4.82;1.98;;;;;;;;;;5072823;28;20059;-78
2021/09/12 12:46:14;;;;;;;3.03;1.63;;;;;;;;;;5072718;28;20490;-78
2021/09/12 12:48:42;;;;;;;3.00;1.95;;;;;;;;;;5075946;28;20047;-78
2021/09/12 12:51:12;;;;;;;4.10;1.95;;;;;;;;;;5071857;28;20091;-78
2021/09/12 12:53:41;;;;;;;2.22;1.77;;;;;;;;;;5071049;28;20048;-78
2021/09/12 12:56:11;;;;;;;3.55;1.73;;;;;;;;;;5061418;28;20078;-77
2021/09/12 12:58:38;;;;;;;3.50;1.73;;;;;;;;;;5063076;28;20056;-78
2021/09/12 13:01:05;;;;;;;5.30;2.15;;;;;;;;;;5061308;28;20457;-77
2021/09/12 13:03:32;;;;;;;3.47;1.95;;;;;;;;;;5057837;28;20057;-79
2021/09/12 13:06:05;;;;;;;3.35;1.80;;;;;;;;;;5064210;28;20105;-79
2021/09/12 13:08:32;;;;;;;2.42;1.42;;;;;;;;;;5071507;28;20040;-79
2021/09/12 13:10:59;;;;;;;2.58;1.60;;;;;;;;;;5065095;28;20074;-78
2021/09/12 13:13:25;;;;;;;3.70;1.65;;;;;;;;;;5059773;28;20106;-79
2021/09/12 13:15:52;;;;;;;2.90;1.90;;;;;;;;;;5058635;28;20064;-77
2021/09/12 13:18:19;;;;;;;4.22;2.10;;;;;;;;;;5069836;28;20137;-77
2021/09/12 13:20:47;;;;;;;3.70;1.80;;;;;;;;;;5069907;28;20145;-77
2021/09/12 13:23:14;;;;;;;2.75;1.75;;;;;;;;;;5078159;28;20040;-77
2021/09/12 13:25:41;;;;;;;3.42;1.77;;;;;;;;;;5072690;28;20626;-77
2021/09/12 13:28:09;;;;;;;3.92;1.80;;;;;;;;;;5068644;28;20246;-78
2021/09/12 13:30:36;;;;;;;3.45;1.77;;;;;;;;;;5073774;28;20826;-78
2021/09/12 13:33:03;;;;;;;4.75;1.65;;;;;;;;;;5073533;28;20071;-78
2021/09/12 13:35:29;;;;;;;4.22;2.08;;;;;;;;;;5048257;28;20035;-78
2021/09/12 13:37:56;;;;;;;2.33;1.60;;;;;;;;;;5051216;28;20060;-78
2021/09/12 13:40:22;;;;;;;2.45;1.67;;;;;;;;;;5062669;28;20052;-79
2021/09/12 13:42:48;;;;;;;2.95;1.40;;;;;;;;;;5067762;28;20718;-78
2021/09/12 13:45:15;;;;;;;3.35;1.70;;;;;;;;;;5063560;28;20120;-79
2021/09/12 13:47:42;;;;;;;3.00;1.83;;;;;;;;;;5072158;28;20055;-78
2021/09/12 13:50:09;;;;;;;3.53;1.70;;;;;;;;;;5069050;28;20051;-79
2021/09/12 13:52:35;;;;;;;2.55;1.80;;;;;;;;;;5059623;28;20307;-79
2021/09/12 13:55:02;;;;;;;2.70;1.60;;;;;;;;;;5063183;28;22367;-78
2021/09/12 13:57:28;;;;;;;2.90;1.63;;;;;;;;;;5067814;28;20056;-78
2021/09/12 13:59:55;;;;;;;3.17;1.70;;;;;;;;;;5060169;28;20234;-78
2021/09/12 14:02:21;;;;;;;2.40;1.70;;;;;;;;;;5062101;28;20082;-78
2021/09/12 14:04:48;;;;;;;3.10;1.42;;;;;;;;;;5069685;28;20845;-78
2021/09/12 14:07:14;;;;;;;2.20;1.50;;;;;;;;;;5045658;28;20052;-78
2021/09/12 14:09:40;;;;;;;2.83;1.55;;;;;;;;;;5083051;28;20126;-78
2021/09/12 14:12:08;;;;;;;2.08;1.52;;;;;;;;;;5082278;28;20060;-79
2021/09/12 14:14:35;;;;;;;4.13;1.80;;;;;;;;;;5065338;28;20391;-78
2021/09/12 14:17:01;;;;;;;2.53;1.40;;;;;;;;;;5082766;28;20076;-79
2021/09/12 14:19:27;;;;;;;4.22;1.90;;;;;;;;;;5064816;28;20078;-78
2021/09/12 14:21:54;;;;;;;3.42;1.90;;;;;;;;;;5060313;28;20105;-80
2021/09/12 14:24:20;;;;;;;3.03;1.80;;;;;;;;;;5069316;28;20060;-79
2021/09/12 14:26:47;;;;;;;2.45;1.35;;;;;;;;;;5063570;28;20079;-78
2021/09/12 14:29:13;;;;;;;2.90;1.48;;;;;;;;;;5081588;28;20052;-78
2021/09/12 14:31:39;;;;;;;4.30;1.85;;;;;;;;;;5081624;28;20056;-78
2021/09/12 14:34:06;;;;;;;2.78;1.63;;;;;;;;;;5083373;28;20474;-78
2021/09/12 14:36:32;;;;;;;2.55;1.55;;;;;;;;;;5084634;28;20063;-78
2021/09/12 14:38:59;;;;;;;3.42;1.50;;;;;;;;;;5084166;28;20059;-78
2021/09/12 14:41:26;;;;;;;3.35;1.63;;;;;;;;;;5085043;28;20161;-81
2021/09/12 14:43:53;;;;;;;5.00;1.80;;;;;;;;;;5077755;28;20736;-82